sensor_id;sensor_type;location;lat;lon;timestamp;temperature;humidity
36322;DHT22;23564;48.290;11.460;2024-01-16T00:00:34;-1.90;1.00
36322;DHT22;23564;48.290;11.460;2024-01-16T00:03:00;-2.00;1.00
36322;DHT22;23564;48.290;11.460;2024-01-16T00:05:25;-2.00;1.00
36322;DHT22;23564;48.290;11.460;2024-01-16T00:07:51;-1.90;1.00
36322;DHT22;23564;48.290;11.460;2024-01-16T00:10:17;-1.90;1.00
36322;DHT22;23564;48.290;11.460;2024-01-16T00:12:42;-1.90;1.00
36322;DHT22;23564;48.290;11.460;2024-01-16T00:15:08;-1.80;99.90
36322;DHT22;23564;48.290;11.460;2024-01-16T00:17:34;-1.80;1.00
36322;DHT22;23564;48.290;11.460;2024-01-16T00:20:00;-1.90;99.90
36322;DHT22;23564;48.290;11.460;2024-01-16T00:22:27;-1.80;99.90
36322;DHT22;23564;48.290;11.460;2024-01-16T00:24:52;-1.90;99.90
36322;DHT22;23564;48.290;11.460;2024-01-16T00:27:18;-1.90;99.90
36322;DHT22;23564;48.290;11.460;2024-01-16T00:29:44;-2.00;99.90
36322;DHT22;23564;48.290;11.460;2024-01-16T00:32:09;-2.00;1.00
36322;DHT22;23564;48.290;11.460;2024-01-16T00:34:35;-2.10;1.00
36322;DHT22;23564;48.290;11.460;2024-01-16T00:37:00;-2.10;39.10
36322;DHT22;23564;48.290;11.460;2024-01-16T00:39:26;-2.10;99.90
36322;DHT22;23564;48.290;11.460;2024-01-16T00:41:51;-2.10;99.90
36322;DHT22;23564;48.290;11.460;2024-01-16T00:44:17;-2.20;99.90
36322;DHT22;23564;48.290;11.460;2024-01-16T00:46:42;-2.20;99.70
36322;DHT22;23564;48.290;11.460;2024-01-16T00:49:08;-2.30;99.90
36322;DHT22;23564;48.290;11.460;2024-01-16T00:51:33;-2.30;99.90
36322;DHT22;23564;48.290;11.460;2024-01-16T00:53:59;-2.40;1.00
36322;DHT22;23564;48.290;11.460;2024-01-16T00:56:25;-2.40;1.90
36322;DHT22;23564;48.290;11.460;2024-01-16T00:58:53;-2.50;94.70
36322;DHT22;23564;48.290;11.460;2024-01-16T01:01:19;-2.60;99.90
36322;DHT22;23564;48.290;11.460;2024-01-16T01:03:45;-2.70;99.90
36322;DHT22;23564;48.290;11.460;2024-01-16T01:06:11;-2.60;99.90
36322;DHT22;23564;48.290;11.460;2024-01-16T01:08:37;-2.70;99.90
36322;DHT22;23564;48.290;11.460;2024-01-16T01:11:02;-2.60;99.90
36322;DHT22;23564;48.290;11.460;2024-01-16T01:13:28;-2.60;99.90
36322;DHT22;23564;48.290;11.460;2024-01-16T01:15:54;-2.60;99.90
36322;DHT22;23564;48.290;11.460;2024-01-16T01:18:19;-2.50;99.90
36322;DHT22;23564;48.290;11.460;2024-01-16T01:20:45;-2.50;99.90
36322;DHT22;23564;48.290;11.460;2024-01-16T01:23:11;-2.50;99.90
36322;DHT22;23564;48.290;11.460;2024-01-16T01:25:36;-2.40;99.90
36322;DHT22;23564;48.290;11.460;2024-01-16T01:28:02;-2.40;99.90
36322;DHT22;23564;48.290;11.460;2024-01-16T01:30:27;-2.40;99.90
36322;DHT22;23564;48.290;11.460;2024-01-16T01:32:53;-2.40;99.90
36322;DHT22;23564;48.290;11.460;2024-01-16T01:35:18;-2.40;99.90
36322;DHT22;23564;48.290;11.460;2024-01-16T01:37:47;-2.40;99.90
36322;DHT22;23564;48.290;11.460;2024-01-16T01:40:13;-2.40;84.80
36322;DHT22;23564;48.290;11.460;2024-01-16T01:42:41;-2.40;99.90
36322;DHT22;23564;48.290;11.460;2024-01-16T01:45:11;-2.40;99.90
36322;DHT22;23564;48.290;11.460;2024-01-16T01:47:37;-2.40;99.90
36322;DHT22;23564;48.290;11.460;2024-01-16T01:50:03;-2.30;99.90
36322;DHT22;23564;48.290;11.460;2024-01-16T01:52:31;-2.40;99.90
36322;DHT22;23564;48.290;11.460;2024-01-16T01:54:57;-2.40;99.90
36322;DHT22;23564;48.290;11.460;2024-01-16T01:57:24;-2.40;99.90
36322;DHT22;23564;48.290;11.460;2024-01-16T01:59:50;-2.50;51.90
36322;DHT22;23564;48.290;11.460;2024-01-16T02:02:16;-2.60;1.00
36322;DHT22;23564;48.290;11.460;2024-01-16T02:04:43;-2.70;1.00
36322;DHT22;23564;48.290;11.460;2024-01-16T02:07:10;-2.80;1.00
36322;DHT22;23564;48.290;11.460;2024-01-16T02:09:35;-3.00;1.00
36322;DHT22;23564;48.290;11.460;2024-01-16T02:12:01;-3.10;1.00
36322;DHT22;23564;48.290;11.460;2024-01-16T02:14:27;-3.20;1.00
36322;DHT22;23564;48.290;11.460;2024-01-16T02:16:53;-3.30;1.00
36322;DHT22;23564;48.290;11.460;2024-01-16T02:19:18;-3.50;37.20
36322;DHT22;23564;48.290;11.460;2024-01-16T02:21:48;-3.60;99.90
36322;DHT22;23564;48.290;11.460;2024-01-16T02:24:15;-3.60;99.90
36322;DHT22;23564;48.290;11.460;2024-01-16T02:26:41;-3.70;99.90
36322;DHT22;23564;48.290;11.460;2024-01-16T02:32:27;-3.80;99.90
36322;DHT22;23564;48.290;11.460;2024-01-16T02:34:53;-3.90;99.90
36322;DHT22;23564;48.290;11.460;2024-01-16T02:37:19;-3.90;99.90
36322;DHT22;23564;48.290;11.460;2024-01-16T02:39:44;-3.90;99.90
36322;DHT22;23564;48.290;11.460;2024-01-16T02:42:10;-3.90;99.90
36322;DHT22;23564;48.290;11.460;2024-01-16T02:44:36;-3.90;99.90
36322;DHT22;23564;48.290;11.460;2024-01-16T02:47:01;-3.90;99.90
36322;DHT22;23564;48.290;11.460;2024-01-16T02:49:27;-4.00;99.90
36322;DHT22;23564;48.290;11.460;2024-01-16T02:51:53;-4.00;99.90
36322;DHT22;23564;48.290;11.460;2024-01-16T02:54:20;-4.00;99.90
36322;DHT22;23564;48.290;11.460;2024-01-16T02:56:45;-4.00;99.90
36322;DHT22;23564;48.290;11.460;2024-01-16T02:59:11;-4.00;99.90
36322;DHT22;23564;48.290;11.460;2024-01-16T03:01:36;-4.10;99.90
36322;DHT22;23564;48.290;11.460;2024-01-16T03:04:02;-4.10;99.90
36322;DHT22;23564;48.290;11.460;2024-01-16T03:06:28;-4.10;99.90
36322;DHT22;23564;48.290;11.460;2024-01-16T03:08:54;-4.00;99.90
36322;DHT22;23564;48.290;11.460;2024-01-16T03:11:20;-4.00;99.90
36322;DHT22;23564;48.290;11.460;2024-01-16T03:13:45;-4.00;99.90
36322;DHT22;23564;48.290;11.460;2024-01-16T03:16:11;-4.00;99.90
36322;DHT22;23564;48.290;11.460;2024-01-16T03:18:37;-3.90;99.90
36322;DHT22;23564;48.290;11.460;2024-01-16T03:21:07;-3.90;99.90
36322;DHT22;23564;48.290;11.460;2024-01-16T03:23:33;-4.00;99.90
36322;DHT22;23564;48.290;11.460;2024-01-16T03:25:58;-4.10;99.90
36322;DHT22;23564;48.290;11.460;2024-01-16T03:28:24;-4.10;99.90
36322;DHT22;23564;48.290;11.460;2024-01-16T03:30:50;-4.20;99.90
36322;DHT22;23564;48.290;11.460;2024-01-16T03:33:16;-4.20;99.90
36322;DHT22;23564;48.290;11.460;2024-01-16T03:35:41;-4.30;99.90
36322;DHT22;23564;48.290;11.460;2024-01-16T03:38:07;-4.40;99.90
36322;DHT22;23564;48.290;11.460;2024-01-16T03:40:32;-4.30;99.90
36322;DHT22;23564;48.290;11.460;2024-01-16T03:43:03;-4.40;99.90
36322;DHT22;23564;48.290;11.460;2024-01-16T03:45:30;-4.40;99.90
36322;DHT22;23564;48.290;11.460;2024-01-16T03:47:56;-4.40;99.90
36322;DHT22;23564;48.290;11.460;2024-01-16T03:50:21;-4.50;99.90
36322;DHT22;23564;48.290;11.460;2024-01-16T03:52:47;-4.50;99.90
36322;DHT22;23564;48.290;11.460;2024-01-16T03:55:13;-4.40;99.90
36322;DHT22;23564;48.290;11.460;2024-01-16T03:57:38;-4.50;99.90
36322;DHT22;23564;48.290;11.460;2024-01-16T04:00:05;-4.50;99.90
36322;DHT22;23564;48.290;11.460;2024-01-16T04:02:31;-4.50;99.90
36322;DHT22;23564;48.290;11.460;2024-01-16T04:04:57;-4.50;99.90
36322;DHT22;23564;48.290;11.460;2024-01-16T04:07:23;-4.50;99.90
36322;DHT22;23564;48.290;11.460;2024-01-16T04:09:49;-4.50;99.90
36322;DHT22;23564;48.290;11.460;2024-01-16T04:12:14;-4.50;99.90
36322;DHT22;23564;48.290;11.460;2024-01-16T04:14:40;-4.60;99.90
36322;DHT22;23564;48.290;11.460;2024-01-16T04:17:06;-4.60;99.90
36322;DHT22;23564;48.290;11.460;2024-01-16T04:19:32;-4.60;99.90
36322;DHT22;23564;48.290;11.460;2024-01-16T04:21:59;-4.60;99.90
36322;DHT22;23564;48.290;11.460;2024-01-16T04:24:25;-4.60;99.90
36322;DHT22;23564;48.290;11.460;2024-01-16T04:26:51;-4.70;99.90
36322;DHT22;23564;48.290;11.460;2024-01-16T04:29:17;-4.70;99.90
36322;DHT22;23564;48.290;11.460;2024-01-16T04:31:42;-4.70;99.90
36322;DHT22;23564;48.290;11.460;2024-01-16T04:34:08;-4.70;99.90
36322;DHT22;23564;48.290;11.460;2024-01-16T04:36:34;-4.70;99.90
36322;DHT22;23564;48.290;11.460;2024-01-16T04:38:59;-4.70;99.90
36322;DHT22;23564;48.290;11.460;2024-01-16T04:41:25;-4.70;99.90
36322;DHT22;23564;48.290;11.460;2024-01-16T04:43:50;-4.70;99.90
36322;DHT22;23564;48.290;11.460;2024-01-16T04:46:16;-4.70;99.90
36322;DHT22;23564;48.290;11.460;2024-01-16T04:48:42;-4.70;99.90
36322;DHT22;23564;48.290;11.460;2024-01-16T04:51:08;-4.70;99.90
36322;DHT22;23564;48.290;11.460;2024-01-16T04:53:34;-4.60;99.90
36322;DHT22;23564;48.290;11.460;2024-01-16T04:55:59;-4.60;99.90
36322;DHT22;23564;48.290;11.460;2024-01-16T04:58:25;-4.70;99.90
36322;DHT22;23564;48.290;11.460;2024-01-16T05:00:50;-4.70;99.90
36322;DHT22;23564;48.290;11.460;2024-01-16T05:03:16;-4.70;99.90
36322;DHT22;23564;48.290;11.460;2024-01-16T05:05:42;-4.80;99.90
36322;DHT22;23564;48.290;11.460;2024-01-16T05:08:08;-4.80;99.90
36322;DHT22;23564;48.290;11.460;2024-01-16T05:10:33;-4.90;99.90
36322;DHT22;23564;48.290;11.460;2024-01-16T05:12:59;-4.90;99.90
36322;DHT22;23564;48.290;11.460;2024-01-16T05:15:24;-4.90;99.90
36322;DHT22;23564;48.290;11.460;2024-01-16T05:17:50;-4.90;99.90
36322;DHT22;23564;48.290;11.460;2024-01-16T05:20:16;-4.90;99.90
36322;DHT22;23564;48.290;11.460;2024-01-16T05:22:41;-4.90;99.90
36322;DHT22;23564;48.290;11.460;2024-01-16T05:25:07;-4.80;99.90
36322;DHT22;23564;48.290;11.460;2024-01-16T05:27:33;-4.70;99.90
36322;DHT22;23564;48.290;11.460;2024-01-16T05:29:59;-4.60;99.90
36322;DHT22;23564;48.290;11.460;2024-01-16T05:32:26;-4.50;99.90
36322;DHT22;23564;48.290;11.460;2024-01-16T05:34:52;-4.50;99.90
36322;DHT22;23564;48.290;11.460;2024-01-16T05:37:18;-4.50;99.90
36322;DHT22;23564;48.290;11.460;2024-01-16T05:39:44;-4.50;99.90
36322;DHT22;23564;48.290;11.460;2024-01-16T05:42:09;-4.50;99.90
36322;DHT22;23564;48.290;11.460;2024-01-16T05:44:37;-4.40;99.90
36322;DHT22;23564;48.290;11.460;2024-01-16T05:47:03;-4.40;99.90
36322;DHT22;23564;48.290;11.460;2024-01-16T05:49:29;-4.50;99.90
36322;DHT22;23564;48.290;11.460;2024-01-16T05:51:55;-4.50;99.90
36322;DHT22;23564;48.290;11.460;2024-01-16T05:54:20;-4.50;99.90
36322;DHT22;23564;48.290;11.460;2024-01-16T05:56:46;-4.60;99.90
36322;DHT22;23564;48.290;11.460;2024-01-16T05:59:11;-4.60;99.90
36322;DHT22;23564;48.290;11.460;2024-01-16T06:01:37;-4.70;99.90
36322;DHT22;23564;48.290;11.460;2024-01-16T06:04:03;-4.70;99.90
36322;DHT22;23564;48.290;11.460;2024-01-16T06:06:29;-4.70;99.90
36322;DHT22;23564;48.290;11.460;2024-01-16T06:08:55;-4.80;99.90
36322;DHT22;23564;48.290;11.460;2024-01-16T06:11:33;-4.80;99.90
36322;DHT22;23564;48.290;11.460;2024-01-16T06:14:00;-4.80;99.90
36322;DHT22;23564;48.290;11.460;2024-01-16T06:16:26;-4.80;99.90
36322;DHT22;23564;48.290;11.460;2024-01-16T06:18:52;-4.80;99.90
36322;DHT22;23564;48.290;11.460;2024-01-16T06:21:18;-4.80;99.90
36322;DHT22;23564;48.290;11.460;2024-01-16T06:23:43;-4.70;99.90
36322;DHT22;23564;48.290;11.460;2024-01-16T06:26:09;-4.70;99.90
36322;DHT22;23564;48.290;11.460;2024-01-16T06:28:35;-4.60;99.90
36322;DHT22;23564;48.290;11.460;2024-01-16T06:31:00;-4.50;99.90
36322;DHT22;23564;48.290;11.460;2024-01-16T06:33:26;-4.50;99.90
36322;DHT22;23564;48.290;11.460;2024-01-16T06:35:54;-4.50;99.90
36322;DHT22;23564;48.290;11.460;2024-01-16T06:38:20;-4.50;99.90
36322;DHT22;23564;48.290;11.460;2024-01-16T06:40:45;-4.50;93.20
36322;DHT22;23564;48.290;11.460;2024-01-16T06:43:14;-4.60;92.70
36322;DHT22;23564;48.290;11.460;2024-01-16T06:45:42;-4.70;86.90
36322;DHT22;23564;48.290;11.460;2024-01-16T06:48:08;-4.80;69.60
36322;DHT22;23564;48.290;11.460;2024-01-16T06:50:33;-4.90;99.90
36322;DHT22;23564;48.290;11.460;2024-01-16T06:52:59;-4.90;99.90
36322;DHT22;23564;48.290;11.460;2024-01-16T06:55:24;-4.90;99.90
36322;DHT22;23564;48.290;11.460;2024-01-16T06:57:50;-5.00;99.90
36322;DHT22;23564;48.290;11.460;2024-01-16T07:00:16;-5.00;99.90
36322;DHT22;23564;48.290;11.460;2024-01-16T07:02:42;-5.00;99.90
36322;DHT22;23564;48.290;11.460;2024-01-16T07:05:11;-5.00;99.90
36322;DHT22;23564;48.290;11.460;2024-01-16T07:07:37;-5.00;99.90
36322;DHT22;23564;48.290;11.460;2024-01-16T07:10:03;-4.90;99.90
36322;DHT22;23564;48.290;11.460;2024-01-16T07:12:29;-4.90;99.90
36322;DHT22;23564;48.290;11.460;2024-01-16T07:14:54;-4.80;99.90
36322;DHT22;23564;48.290;11.460;2024-01-16T07:17:20;-4.80;99.90
36322;DHT22;23564;48.290;11.460;2024-01-16T07:19:45;-4.80;99.90
36322;DHT22;23564;48.290;11.460;2024-01-16T07:22:11;-4.80;99.90
36322;DHT22;23564;48.290;11.460;2024-01-16T07:24:36;-4.70;99.90
36322;DHT22;23564;48.290;11.460;2024-01-16T07:27:02;-4.70;99.90
36322;DHT22;23564;48.290;11.460;2024-01-16T07:29:28;-4.60;99.90
36322;DHT22;23564;48.290;11.460;2024-01-16T07:31:53;-4.50;99.90
36322;DHT22;23564;48.290;11.460;2024-01-16T07:34:19;-4.50;99.90
36322;DHT22;23564;48.290;11.460;2024-01-16T07:36:47;-4.40;99.90
36322;DHT22;23564;48.290;11.460;2024-01-16T07:39:16;-4.40;99.90
36322;DHT22;23564;48.290;11.460;2024-01-16T07:41:42;-4.30;99.90
36322;DHT22;23564;48.290;11.460;2024-01-16T07:44:08;-4.30;99.90
36322;DHT22;23564;48.290;11.460;2024-01-16T07:46:33;-4.20;99.90
36322;DHT22;23564;48.290;11.460;2024-01-16T07:49:00;-4.10;99.90
36322;DHT22;23564;48.290;11.460;2024-01-16T07:51:25;-4.00;99.90
36322;DHT22;23564;48.290;11.460;2024-01-16T07:54:05;-3.90;99.90
36322;DHT22;23564;48.290;11.460;2024-01-16T07:56:32;-3.80;99.90
36322;DHT22;23564;48.290;11.460;2024-01-16T07:58:57;-3.70;99.90
36322;DHT22;23564;48.290;11.460;2024-01-16T08:01:23;-3.70;99.90
36322;DHT22;23564;48.290;11.460;2024-01-16T08:03:48;-3.60;99.90
36322;DHT22;23564;48.290;11.460;2024-01-16T08:06:14;-3.60;99.90
36322;DHT22;23564;48.290;11.460;2024-01-16T08:08:39;-3.50;99.90
36322;DHT22;23564;48.290;11.460;2024-01-16T08:11:05;-3.40;99.90
36322;DHT22;23564;48.290;11.460;2024-01-16T08:13:30;-3.20;99.90
36322;DHT22;23564;48.290;11.460;2024-01-16T08:15:56;-3.10;99.90
36322;DHT22;23564;48.290;11.460;2024-01-16T08:18:22;-3.00;57.20
36322;DHT22;23564;48.290;11.460;2024-01-16T08:20:47;-2.90;1.00
36322;DHT22;23564;48.290;11.460;2024-01-16T08:23:13;-2.90;1.00
36322;DHT22;23564;48.290;11.460;2024-01-16T08:25:38;-2.70;99.90
36322;DHT22;23564;48.290;11.460;2024-01-16T08:28:04;-2.70;99.90
36322;DHT22;23564;48.290;11.460;2024-01-16T08:30:30;-2.60;99.90
36322;DHT22;23564;48.290;11.460;2024-01-16T08:32:56;-2.50;8.90
36322;DHT22;23564;48.290;11.460;2024-01-16T08:35:21;-2.40;1.00
36322;DHT22;23564;48.290;11.460;2024-01-16T08:37:48;-2.40;72.60
36322;DHT22;23564;48.290;11.460;2024-01-16T08:40:13;-2.30;1.00
36322;DHT22;23564;48.290;11.460;2024-01-16T08:42:39;-2.20;99.90
36322;DHT22;23564;48.290;11.460;2024-01-16T08:45:05;-2.10;99.90
36322;DHT22;23564;48.290;11.460;2024-01-16T08:47:31;-2.00;99.90
36322;DHT22;23564;48.290;11.460;2024-01-16T08:49:57;-2.00;15.40
36322;DHT22;23564;48.290;11.460;2024-01-16T08:52:22;-2.00;19.30
36322;DHT22;23564;48.290;11.460;2024-01-16T08:54:48;-1.80;99.90
36322;DHT22;23564;48.290;11.460;2024-01-16T08:57:17;-1.70;1.00
36322;DHT22;23564;48.290;11.460;2024-01-16T08:59:42;-1.60;1.00
36322;DHT22;23564;48.290;11.460;2024-01-16T09:02:08;-1.50;99.90
36322;DHT22;23564;48.290;11.460;2024-01-16T09:04:33;-1.30;99.90
36322;DHT22;23564;48.290;11.460;2024-01-16T09:07:00;-1.20;41.50
36322;DHT22;23564;48.290;11.460;2024-01-16T09:09:25;-1.00;1.00
36322;DHT22;23564;48.290;11.460;2024-01-16T09:11:51;-0.90;99.90
36322;DHT22;23564;48.290;11.460;2024-01-16T09:14:17;-0.80;99.90
36322;DHT22;23564;48.290;11.460;2024-01-16T09:16:42;-0.70;99.90
36322;DHT22;23564;48.290;11.460;2024-01-16T09:19:08;-0.60;99.90
36322;DHT22;23564;48.290;11.460;2024-01-16T09:21:35;-0.50;99.90
36322;DHT22;23564;48.290;11.460;2024-01-16T09:24:12;-0.40;99.90
36322;DHT22;23564;48.290;11.460;2024-01-16T09:26:38;-0.30;1.00
36322;DHT22;23564;48.290;11.460;2024-01-16T09:29:07;-0.20;99.90
36322;DHT22;23564;48.290;11.460;2024-01-16T09:31:37;-0.10;99.90
36322;DHT22;23564;48.290;11.460;2024-01-16T09:34:11;0.10;99.90
36322;DHT22;23564;48.290;11.460;2024-01-16T09:36:40;0.30;1.00
36322;DHT22;23564;48.290;11.460;2024-01-16T09:39:07;0.40;1.00
36322;DHT22;23564;48.290;11.460;2024-01-16T09:41:45;0.40;1.00
36322;DHT22;23564;48.290;11.460;2024-01-16T09:44:11;0.40;1.00
36322;DHT22;23564;48.290;11.460;2024-01-16T09:46:38;0.50;1.00
36322;DHT22;23564;48.290;11.460;2024-01-16T09:49:05;0.60;99.90
36322;DHT22;23564;48.290;11.460;2024-01-16T09:51:35;0.60;99.90
36322;DHT22;23564;48.290;11.460;2024-01-16T09:54:01;0.60;99.90
36322;DHT22;23564;48.290;11.460;2024-01-16T09:56:31;0.60;99.90
36322;DHT22;23564;48.290;11.460;2024-01-16T09:59:02;0.70;99.90
36322;DHT22;23564;48.290;11.460;2024-01-16T10:01:30;0.70;99.90
36322;DHT22;23564;48.290;11.460;2024-01-16T10:03:58;0.60;99.90
36322;DHT22;23564;48.290;11.460;2024-01-16T10:06:27;0.60;99.90
36322;DHT22;23564;48.290;11.460;2024-01-16T10:08:53;0.60;99.90
36322;DHT22;23564;48.290;11.460;2024-01-16T10:11:19;0.50;99.90
36322;DHT22;23564;48.290;11.460;2024-01-16T10:13:44;0.40;90.00
36322;DHT22;23564;48.290;11.460;2024-01-16T10:16:10;0.40;99.90
36322;DHT22;23564;48.290;11.460;2024-01-16T10:18:38;0.50;99.90
36322;DHT22;23564;48.290;11.460;2024-01-16T10:21:05;0.50;99.90
36322;DHT22;23564;48.290;11.460;2024-01-16T10:23:31;0.50;99.90
36322;DHT22;23564;48.290;11.460;2024-01-16T10:26:09;0.50;99.90
36322;DHT22;23564;48.290;11.460;2024-01-16T10:28:36;0.60;99.90
36322;DHT22;23564;48.290;11.460;2024-01-16T10:31:03;0.60;99.90
36322;DHT22;23564;48.290;11.460;2024-01-16T10:33:29;0.70;99.90
36322;DHT22;23564;48.290;11.460;2024-01-16T10:36:14;0.80;99.90
36322;DHT22;23564;48.290;11.460;2024-01-16T10:38:45;0.90;99.90
36322;DHT22;23564;48.290;11.460;2024-01-16T10:41:15;1.10;99.90
36322;DHT22;23564;48.290;11.460;2024-01-16T10:43:47;1.20;22.10
36322;DHT22;23564;48.290;11.460;2024-01-16T10:46:16;1.40;1.00
36322;DHT22;23564;48.290;11.460;2024-01-16T10:49:03;1.40;1.00
36322;DHT22;23564;48.290;11.460;2024-01-16T10:51:30;1.50;1.00
36322;DHT22;23564;48.290;11.460;2024-01-16T10:54:22;1.50;1.00
36322;DHT22;23564;48.290;11.460;2024-01-16T10:56:49;1.60;1.00
36322;DHT22;23564;48.290;11.460;2024-01-16T10:59:27;1.50;1.00
36322;DHT22;23564;48.290;11.460;2024-01-16T11:01:59;1.40;1.00
36322;DHT22;23564;48.290;11.460;2024-01-16T11:04:27;1.40;99.90
36322;DHT22;23564;48.290;11.460;2024-01-16T11:06:54;1.60;1.00
36322;DHT22;23564;48.290;11.460;2024-01-16T11:09:20;1.50;1.00
36322;DHT22;23564;48.290;11.460;2024-01-16T11:11:47;1.50;99.90
36322;DHT22;23564;48.290;11.460;2024-01-16T11:14:16;1.30;99.90
36322;DHT22;23564;48.290;11.460;2024-01-16T11:16:42;1.30;99.90
36322;DHT22;23564;48.290;11.460;2024-01-16T11:19:09;1.40;1.00
36322;DHT22;23564;48.290;11.460;2024-01-16T11:21:36;1.40;99.90
36322;DHT22;23564;48.290;11.460;2024-01-16T11:24:04;1.40;1.00
36322;DHT22;23564;48.290;11.460;2024-01-16T11:26:31;1.40;99.90
36322;DHT22;23564;48.290;11.460;2024-01-16T11:28:58;1.40;99.90
36322;DHT22;23564;48.290;11.460;2024-01-16T11:31:32;1.30;99.90
36322;DHT22;23564;48.290;11.460;2024-01-16T11:33:58;1.10;99.90
36322;DHT22;23564;48.290;11.460;2024-01-16T11:36:49;0.90;99.90
36322;DHT22;23564;48.290;11.460;2024-01-16T11:39:21;0.90;99.90
36322;DHT22;23564;48.290;11.460;2024-01-16T11:47:04;1.10;99.90
36322;DHT22;23564;48.290;11.460;2024-01-16T11:49:30;1.10;99.90
36322;DHT22;23564;48.290;11.460;2024-01-16T11:51:59;1.30;99.90
36322;DHT22;23564;48.290;11.460;2024-01-16T11:54:25;1.40;99.90
36322;DHT22;23564;48.290;11.460;2024-01-16T11:59:42;1.70;99.90
36322;DHT22;23564;48.290;11.460;2024-01-16T12:02:18;1.90;99.90
36322;DHT22;23564;48.290;11.460;2024-01-16T12:04:55;1.90;99.90
36322;DHT22;23564;48.290;11.460;2024-01-16T12:07:22;1.80;99.90
36322;DHT22;23564;48.290;11.460;2024-01-16T12:09:48;1.80;99.90
36322;DHT22;23564;48.290;11.460;2024-01-16T12:12:15;1.80;99.90
36322;DHT22;23564;48.290;11.460;2024-01-16T12:14:51;1.70;99.90
36322;DHT22;23564;48.290;11.460;2024-01-16T12:17:18;1.70;99.90
36322;DHT22;23564;48.290;11.460;2024-01-16T12:19:45;1.80;99.90
36322;DHT22;23564;48.290;11.460;2024-01-16T12:22:15;1.90;99.90
36322;DHT22;23564;48.290;11.460;2024-01-16T12:24:43;1.80;99.90
36322;DHT22;23564;48.290;11.460;2024-01-16T12:27:10;2.00;99.90
36322;DHT22;23564;48.290;11.460;2024-01-16T12:29:36;2.00;99.90
36322;DHT22;23564;48.290;11.460;2024-01-16T12:32:12;2.00;99.90
36322;DHT22;23564;48.290;11.460;2024-01-16T12:34:46;2.00;99.90
36322;DHT22;23564;48.290;11.460;2024-01-16T12:37:12;2.00;99.90
36322;DHT22;23564;48.290;11.460;2024-01-16T12:39:38;2.10;99.90
36322;DHT22;23564;48.290;11.460;2024-01-16T12:42:04;2.20;99.90
36322;DHT22;23564;48.290;11.460;2024-01-16T12:44:30;2.20;99.90
36322;DHT22;23564;48.290;11.460;2024-01-16T12:46:57;2.10;99.90
36322;DHT22;23564;48.290;11.460;2024-01-16T12:49:24;2.00;99.90
36322;DHT22;23564;48.290;11.460;2024-01-16T12:51:50;1.90;99.90
36322;DHT22;23564;48.290;11.460;2024-01-16T12:54:17;2.00;99.90
36322;DHT22;23564;48.290;11.460;2024-01-16T12:56:44;2.00;99.90
36322;DHT22;23564;48.290;11.460;2024-01-16T12:59:13;1.90;99.90
36322;DHT22;23564;48.290;11.460;2024-01-16T13:01:43;1.90;99.90
36322;DHT22;23564;48.290;11.460;2024-01-16T13:04:10;1.80;99.90
36322;DHT22;23564;48.290;11.460;2024-01-16T13:06:36;1.70;99.90
36322;DHT22;23564;48.290;11.460;2024-01-16T13:09:09;1.60;99.90
36322;DHT22;23564;48.290;11.460;2024-01-16T13:11:55;1.60;99.90
36322;DHT22;23564;48.290;11.460;2024-01-16T13:14:21;1.60;99.90
36322;DHT22;23564;48.290;11.460;2024-01-16T13:16:51;1.50;99.90
36322;DHT22;23564;48.290;11.460;2024-01-16T13:19:18;1.40;99.90
36322;DHT22;23564;48.290;11.460;2024-01-16T13:21:44;1.40;99.90
36322;DHT22;23564;48.290;11.460;2024-01-16T13:24:09;1.40;99.90
36322;DHT22;23564;48.290;11.460;2024-01-16T13:26:36;1.40;99.90
36322;DHT22;23564;48.290;11.460;2024-01-16T13:29:03;1.30;99.90
36322;DHT22;23564;48.290;11.460;2024-01-16T13:31:29;1.20;99.90
36322;DHT22;23564;48.290;11.460;2024-01-16T13:33:55;0.90;99.90
36322;DHT22;23564;48.290;11.460;2024-01-16T13:36:22;0.80;99.90
36322;DHT22;23564;48.290;11.460;2024-01-16T13:38:48;0.80;99.90
36322;DHT22;23564;48.290;11.460;2024-01-16T13:41:14;0.70;99.90
36322;DHT22;23564;48.290;11.460;2024-01-16T13:43:40;0.70;99.90
36322;DHT22;23564;48.290;11.460;2024-01-16T13:46:06;0.60;1.00
36322;DHT22;23564;48.290;11.460;2024-01-16T13:48:34;0.50;99.90
36322;DHT22;23564;48.290;11.460;2024-01-16T13:50:59;0.50;1.00
36322;DHT22;23564;48.290;11.460;2024-01-16T13:53:25;0.50;1.00
36322;DHT22;23564;48.290;11.460;2024-01-16T13:55:51;0.50;1.00
36322;DHT22;23564;48.290;11.460;2024-01-16T13:58:16;0.50;1.00
36322;DHT22;23564;48.290;11.460;2024-01-16T14:00:43;0.50;1.00
36322;DHT22;23564;48.290;11.460;2024-01-16T14:03:09;0.60;1.00
36322;DHT22;23564;48.290;11.460;2024-01-16T14:05:35;0.70;1.00
36322;DHT22;23564;48.290;11.460;2024-01-16T14:08:01;0.80;99.90
36322;DHT22;23564;48.290;11.460;2024-01-16T14:10:27;0.80;99.90
36322;DHT22;23564;48.290;11.460;2024-01-16T14:12:53;0.80;99.90
36322;DHT22;23564;48.290;11.460;2024-01-16T14:15:20;0.80;99.90
36322;DHT22;23564;48.290;11.460;2024-01-16T14:17:54;0.70;99.90
36322;DHT22;23564;48.290;11.460;2024-01-16T14:20:20;0.60;99.90
36322;DHT22;23564;48.290;11.460;2024-01-16T14:22:55;0.60;99.90
36322;DHT22;23564;48.290;11.460;2024-01-16T14:25:21;0.70;99.90
36322;DHT22;23564;48.290;11.460;2024-01-16T14:28:02;0.70;99.90
36322;DHT22;23564;48.290;11.460;2024-01-16T14:30:35;0.80;99.90
36322;DHT22;23564;48.290;11.460;2024-01-16T14:33:01;0.70;99.90
36322;DHT22;23564;48.290;11.460;2024-01-16T14:35:27;0.70;99.90
36322;DHT22;23564;48.290;11.460;2024-01-16T14:37:53;0.70;99.90
36322;DHT22;23564;48.290;11.460;2024-01-16T14:40:19;0.70;99.90
36322;DHT22;23564;48.290;11.460;2024-01-16T14:42:54;0.70;99.90
36322;DHT22;23564;48.290;11.460;2024-01-16T14:45:25;0.70;99.90
36322;DHT22;23564;48.290;11.460;2024-01-16T14:47:52;0.70;99.90
36322;DHT22;23564;48.290;11.460;2024-01-16T14:50:20;0.80;99.90
36322;DHT22;23564;48.290;11.460;2024-01-16T14:52:48;0.70;99.90
36322;DHT22;23564;48.290;11.460;2024-01-16T14:55:14;0.70;99.90
36322;DHT22;23564;48.290;11.460;2024-01-16T14:57:40;0.80;99.90
36322;DHT22;23564;48.290;11.460;2024-01-16T15:00:13;0.70;99.90
36322;DHT22;23564;48.290;11.460;2024-01-16T15:02:46;0.70;99.90
36322;DHT22;23564;48.290;11.460;2024-01-16T15:05:16;0.70;99.90
36322;DHT22;23564;48.290;11.460;2024-01-16T15:07:42;0.70;99.90
36322;DHT22;23564;48.290;11.460;2024-01-16T15:10:12;0.60;99.90
36322;DHT22;23564;48.290;11.460;2024-01-16T15:12:41;0.60;99.90
36322;DHT22;23564;48.290;11.460;2024-01-16T15:15:11;0.50;99.90
36322;DHT22;23564;48.290;11.460;2024-01-16T15:17:39;0.30;99.90
36322;DHT22;23564;48.290;11.460;2024-01-16T15:20:07;0.20;99.90
36322;DHT22;23564;48.290;11.460;2024-01-16T15:22:40;0.20;1.00
36322;DHT22;23564;48.290;11.460;2024-01-16T15:25:06;0.20;1.00
36322;DHT22;23564;48.290;11.460;2024-01-16T15:27:33;0.20;99.90
36322;DHT22;23564;48.290;11.460;2024-01-16T15:29:59;0.20;99.90
36322;DHT22;23564;48.290;11.460;2024-01-16T15:32:25;0.10;99.90